createdAt,value
2023-02-23T00:02:16.603Z,9.48
2023-02-23T00:05:22.202Z,9.88
2023-02-23T00:08:30.380Z,8.63
2023-02-23T00:11:36.860Z,8.35
2023-02-23T00:14:44.015Z,6.05
2023-02-23T00:17:51.952Z,7.57
2023-02-23T00:21:00.581Z,9.25
2023-02-23T00:24:10.435Z,9.35
2023-02-23T00:27:19.052Z,8.35
2023-02-23T00:30:25.489Z,6.65
2023-02-23T00:33:30.671Z,10.40
2023-02-23T00:36:37.755Z,10.70
2023-02-23T00:39:46.234Z,11.73
2023-02-23T00:42:53.086Z,7.68
2023-02-23T00:45:58.431Z,9.88
2023-02-23T00:49:05.508Z,9.73
2023-02-23T00:52:10.625Z,7.45
2023-02-23T00:55:19.136Z,8.20
2023-02-23T00:58:24.156Z,9.02
2023-02-23T01:01:31.364Z,10.93
2023-02-23T01:04:36.296Z,6.22
2023-02-23T01:07:41.811Z,7.70
2023-02-23T01:10:53.377Z,8.93
2023-02-23T01:13:59.567Z,9.13
2023-02-23T01:17:04.602Z,7.68
2023-02-23T01:20:18.215Z,8.50
2023-02-23T01:23:23.122Z,8.25
2023-02-23T01:26:34.204Z,10.20
2023-02-23T01:29:39.116Z,8.27
2023-02-23T01:32:44.556Z,9.85
2023-02-23T01:35:59.676Z,8.20
2023-02-23T01:39:07.985Z,8.75
2023-02-23T01:42:16.939Z,8.95
2023-02-23T01:45:35.223Z,7.85
2023-02-23T01:48:41.997Z,9.10
2023-02-23T01:51:50.092Z,9.30
2023-02-23T01:54:56.595Z,9.98
2023-02-23T01:58:07.258Z,10.95
2023-02-23T02:01:16.569Z,9.13
2023-02-23T02:04:22.450Z,9.90
2023-02-23T02:07:29.708Z,9.20
2023-02-23T02:10:47.656Z,9.23
2023-02-23T02:13:55.757Z,9.95
2023-02-23T02:17:06.422Z,8.20
2023-02-23T02:20:33.133Z,8.77
2023-02-23T02:23:57.248Z,9.80
2023-02-23T02:27:10.748Z,9.50
2023-02-23T02:30:34.494Z,8.70
2023-02-23T02:33:55.958Z,10.60
2023-02-23T02:37:16.048Z,11.20
2023-02-23T02:40:28.530Z,10.23
2023-02-23T02:46:43.164Z,10.93
2023-02-23T02:49:55.718Z,9.13
2023-02-23T02:53:02.413Z,7.80
2023-02-23T02:56:12.697Z,8.90
2023-02-23T02:59:31.115Z,10.05
2023-02-23T03:02:49.987Z,9.32
2023-02-23T03:06:08.214Z,8.60
2023-02-23T03:09:31.622Z,11.93
2023-02-23T03:16:15.667Z,9.40
2023-02-23T03:19:35.387Z,8.95
2023-02-23T03:22:55.286Z,10.77
2023-02-23T03:26:17.501Z,6.95
2023-02-23T03:29:40.143Z,10.60
2023-02-23T03:33:02.596Z,9.13
2023-02-23T03:36:21.834Z,8.05
2023-02-23T03:39:41.721Z,7.47
2023-02-23T03:43:00.097Z,8.20
2023-02-23T03:46:18.530Z,11.60
2023-02-23T03:49:41.823Z,10.30
2023-02-23T03:53:01.616Z,11.80
2023-02-23T03:56:19.415Z,8.50
2023-02-23T03:59:41.115Z,9.95
2023-02-23T04:03:00.464Z,16.30
2023-02-23T04:06:22.784Z,10.95
2023-02-23T04:09:41.002Z,9.13
2023-02-23T04:13:01.843Z,8.30
2023-02-23T04:16:05.773Z,8.68
2023-02-23T04:19:10.994Z,8.20
2023-02-23T04:22:19.273Z,12.68
2023-02-23T04:25:27.278Z,10.10
2023-02-23T04:31:41.912Z,11.43
2023-02-23T04:34:47.555Z,11.43
2023-02-23T04:37:55.913Z,12.00
2023-02-23T04:41:01.399Z,12.25
2023-02-23T04:44:06.772Z,12.00
2023-02-23T04:47:12.025Z,9.73
2023-02-23T04:50:17.341Z,11.27
2023-02-23T04:53:27.276Z,10.75
2023-02-23T04:56:32.448Z,12.30
2023-02-23T04:59:37.797Z,11.55
2023-02-23T05:02:42.923Z,10.25
2023-02-23T05:05:48.646Z,9.02
2023-02-23T05:08:56.243Z,8.88
2023-02-23T05:12:01.966Z,12.48
2023-02-23T05:15:07.841Z,10.98
2023-02-23T05:18:13.847Z,11.80
2023-02-23T05:21:19.031Z,12.93
2023-02-23T05:24:27.805Z,11.32
2023-02-23T05:27:32.745Z,15.52
2023-02-23T05:30:38.395Z,10.35
2023-02-23T05:33:44.084Z,11.85
2023-02-23T05:36:49.425Z,12.20
2023-02-23T05:39:57.452Z,12.18
2023-02-23T05:43:03.474Z,13.75
2023-02-23T05:46:09.329Z,12.60
2023-02-23T05:49:17.155Z,10.45
2023-02-23T05:52:22.127Z,12.75
2023-02-23T05:55:32.286Z,12.65
2023-02-23T05:58:37.718Z,14.63
2023-02-23T06:01:43.167Z,8.88
2023-02-23T06:04:48.311Z,13.13
2023-02-23T06:07:55.424Z,13.93
2023-02-23T06:11:04.656Z,12.38
2023-02-23T06:14:10.246Z,11.38
2023-02-23T06:17:15.471Z,11.90
2023-02-23T06:20:20.944Z,13.27
2023-02-23T06:23:26.202Z,12.60
2023-02-23T06:26:35.452Z,12.38
2023-02-23T06:29:42.412Z,11.32
2023-02-23T06:32:47.867Z,11.65
2023-02-23T06:35:52.787Z,14.55
2023-02-23T06:38:59.263Z,12.48
2023-02-23T06:42:06.750Z,13.43
2023-02-23T06:45:13.663Z,10.20
2023-02-23T06:48:21.049Z,12.52
2023-02-23T06:51:26.780Z,15.13
2023-02-23T06:54:31.915Z,14.55
2023-02-23T06:57:40.137Z,13.93
2023-02-23T07:00:45.876Z,12.75
2023-02-23T07:03:54.442Z,10.95
2023-02-23T07:06:59.472Z,18.23
2023-02-23T07:10:06.423Z,13.38
2023-02-23T07:13:14.343Z,11.70
2023-02-23T07:16:19.732Z,14.30
2023-02-23T07:19:24.582Z,12.07
2023-02-23T07:22:30.627Z,12.82
2023-02-23T07:25:35.854Z,16.70
2023-02-23T07:28:44.309Z,12.55
2023-02-23T07:31:52.355Z,15.07
2023-02-23T07:34:59.980Z,12.35
2023-02-23T07:38:07.584Z,13.30
2023-02-23T07:41:13.281Z,11.70
2023-02-23T07:44:21.041Z,12.93
2023-02-23T07:47:31.247Z,13.23
2023-02-23T07:50:38.644Z,14.68
2023-02-23T07:53:44.627Z,12.30
2023-02-23T07:56:49.828Z,14.18
2023-02-23T07:59:58.231Z,14.43
2023-02-23T08:03:04.086Z,13.07
2023-02-23T08:06:09.539Z,16.05
2023-02-23T08:09:14.754Z,15.38
2023-02-23T08:12:20.153Z,12.45
2023-02-23T08:15:28.113Z,11.27
2023-02-23T08:18:34.541Z,12.82
2023-02-23T08:21:40.521Z,16.48
2023-02-23T08:24:47.509Z,14.20
2023-02-23T08:27:53.319Z,14.57
2023-02-23T08:31:04.453Z,16.65
2023-02-23T08:34:10.452Z,15.80
2023-02-23T08:37:15.726Z,11.05
2023-02-23T08:40:26.285Z,12.10
2023-02-23T08:43:31.895Z,18.52
2023-02-23T08:46:39.855Z,14.00
2023-02-23T08:49:45.481Z,19.05
2023-02-23T08:52:50.674Z,14.98
2023-02-23T08:55:58.724Z,12.93
2023-02-23T08:59:03.630Z,18.95
2023-02-23T09:02:14.635Z,15.88
2023-02-23T09:05:20.528Z,15.35
2023-02-23T09:08:26.947Z,17.52
2023-02-23T09:11:31.791Z,17.77
2023-02-23T09:14:40.794Z,15.10
2023-02-23T09:17:48.396Z,18.08
2023-02-23T09:20:53.893Z,17.73
2023-02-23T09:23:59.270Z,20.85
2023-02-23T09:27:07.495Z,18.58
2023-02-23T09:30:18.052Z,19.92
2023-02-23T09:33:27.168Z,17.58
2023-02-23T09:36:33.326Z,15.20
2023-02-23T09:39:39.223Z,16.70
2023-02-23T09:42:46.624Z,18.10
2023-02-23T09:45:56.139Z,19.60
2023-02-23T09:49:04.665Z,20.35
2023-02-23T09:52:16.003Z,17.88
2023-02-23T09:55:21.490Z,19.08
2023-02-23T09:58:29.175Z,19.13
2023-02-23T10:01:51.692Z,21.88
2023-02-23T10:08:09.269Z,20.45
2023-02-23T10:11:19.559Z,21.83
2023-02-23T10:14:32.393Z,19.88
2023-02-23T10:17:42.088Z,15.55
2023-02-23T10:20:51.128Z,15.65
2023-02-23T10:24:01.770Z,14.95
2023-02-23T10:27:10.462Z,19.17
2023-02-23T10:30:21.661Z,20.67
2023-02-23T10:33:32.051Z,20.70
2023-02-23T10:36:39.543Z,19.42
2023-02-23T10:39:50.083Z,18.77
2023-02-23T10:42:55.724Z,18.48
2023-02-23T10:46:00.961Z,18.48
2023-02-23T10:49:07.716Z,20.58
2023-02-23T10:52:14.345Z,17.27
2023-02-23T10:55:30.466Z,15.55
2023-02-23T10:58:42.816Z,16.73
2023-02-23T11:05:08.644Z,19.98
2023-02-23T11:08:26.024Z,18.55
2023-02-23T11:11:36.499Z,15.68
2023-02-23T11:14:42.702Z,17.20
2023-02-23T11:17:48.024Z,16.20
2023-02-23T11:20:55.050Z,20.23
2023-02-23T11:24:01.316Z,16.67
2023-02-23T11:27:10.825Z,17.38
2023-02-23T11:30:16.690Z,16.88
2023-02-23T11:33:25.607Z,17.52
2023-02-23T11:36:31.502Z,18.13
2023-02-23T11:39:40.877Z,17.77
2023-02-23T11:42:56.216Z,20.98
2023-02-23T11:46:04.248Z,21.83
2023-02-23T11:49:10.371Z,18.92
2023-02-23T11:52:20.629Z,16.15
2023-02-23T11:55:26.033Z,14.82
2023-02-23T11:58:39.330Z,18.20
2023-02-23T12:01:47.633Z,17.73
2023-02-23T12:04:53.833Z,18.50
2023-02-23T12:08:01.628Z,14.35
2023-02-23T12:11:08.679Z,18.73
2023-02-23T12:14:25.298Z,17.33
2023-02-23T12:17:33.036Z,16.55
2023-02-23T12:20:40.757Z,19.83
2023-02-23T12:23:50.438Z,16.25
2023-02-23T12:27:00.037Z,18.48
2023-02-23T12:30:15.478Z,16.30
2023-02-23T12:33:22.045Z,18.63
2023-02-23T12:36:35.650Z,19.73
2023-02-23T12:39:43.442Z,18.15
2023-02-23T12:42:52.559Z,20.55
2023-02-23T12:46:08.471Z,20.85
2023-02-23T12:49:20.714Z,21.90
2023-02-23T12:52:28.862Z,17.55
2023-02-23T12:55:38.782Z,19.95
2023-02-23T12:58:48.523Z,21.45
2023-02-23T13:02:00.998Z,21.58
2023-02-23T13:05:16.168Z,22.05
2023-02-23T13:08:25.820Z,20.80
2023-02-23T13:11:45.828Z,21.52
2023-02-23T13:14:56.036Z,20.90
2023-02-23T13:18:08.158Z,19.50
2023-02-23T13:21:20.935Z,20.92
2023-02-23T13:24:27.473Z,27.08
2023-02-23T13:27:39.415Z,22.20
2023-02-23T13:30:48.194Z,19.10
2023-02-23T13:33:57.630Z,25.33
2023-02-23T13:37:03.804Z,22.20
2023-02-23T13:40:18.981Z,22.73
2023-02-23T13:43:30.188Z,21.98
2023-02-23T13:46:43.305Z,22.10
2023-02-23T13:49:54.449Z,19.60
2023-02-23T13:53:05.363Z,25.15
2023-02-23T13:56:11.761Z,22.48
2023-02-23T13:59:19.684Z,25.30
2023-02-23T14:02:39.399Z,19.90
2023-02-23T14:05:48.427Z,19.73
2023-02-23T14:08:55.387Z,21.58
2023-02-23T14:12:05.946Z,21.80
2023-02-23T14:15:25.873Z,21.75
2023-02-23T14:18:32.628Z,24.45
2023-02-23T14:21:47.278Z,20.38
2023-02-23T14:25:25.529Z,24.20
2023-02-23T14:28:37.128Z,22.73
2023-02-23T14:31:55.695Z,21.10
2023-02-23T14:35:01.809Z,22.08
2023-02-23T14:38:13.426Z,20.65
2023-02-23T14:41:23.549Z,22.75
2023-02-23T14:44:31.476Z,23.20
2023-02-23T14:47:44.440Z,22.20
2023-02-23T14:50:52.633Z,23.33
2023-02-23T14:54:03.724Z,22.63
2023-02-23T14:57:09.962Z,19.85
2023-02-23T15:00:23.330Z,23.15
2023-02-23T15:03:29.379Z,23.15
2023-02-23T15:06:34.243Z,23.30
2023-02-23T15:09:43.986Z,23.52
2023-02-23T15:12:49.606Z,22.25
2023-02-23T15:15:55.206Z,22.85
2023-02-23T15:19:01.884Z,23.80
2023-02-23T15:22:08.781Z,27.83
2023-02-23T15:25:20.498Z,27.45
2023-02-23T15:28:30.353Z,27.45
2023-02-23T15:31:36.954Z,29.23
2023-02-23T15:34:42.343Z,33.22
2023-02-23T15:37:55.244Z,33.97
2023-02-23T15:41:18.567Z,29.92
2023-02-23T15:44:27.512Z,28.05
2023-02-23T15:47:36.907Z,35.08
2023-02-23T15:50:44.248Z,29.45
2023-02-23T15:53:49.973Z,37.00
2023-02-23T15:56:59.047Z,40.42
2023-02-23T16:00:12.204Z,39.30
2023-02-23T16:03:29.861Z,35.85
2023-02-23T16:06:37.663Z,37.15
2023-02-23T16:09:43.037Z,31.92
2023-02-23T16:12:56.746Z,38.20
2023-02-23T16:16:02.398Z,34.13
2023-02-23T16:19:07.775Z,39.92
2023-02-23T16:22:21.931Z,36.00
2023-02-23T16:25:28.918Z,30.00
2023-02-23T16:28:36.961Z,30.42
2023-02-23T16:31:46.172Z,32.35
2023-02-23T16:34:52.545Z,40.47
2023-02-23T16:38:02.702Z,39.72
2023-02-23T16:41:08.351Z,32.42
2023-02-23T16:44:18.485Z,39.42
2023-02-23T16:47:36.590Z,39.42
2023-02-23T16:50:45.943Z,33.72
2023-02-23T16:53:52.574Z,35.35
2023-02-23T16:56:59.729Z,42.20
2023-02-23T17:00:14.641Z,38.33
2023-02-23T17:03:22.462Z,43.13
2023-02-23T17:06:27.651Z,41.90
2023-02-23T17:09:33.789Z,47.00
2023-02-23T17:12:38.621Z,45.20
2023-02-23T17:15:50.760Z,40.47
2023-02-23T17:18:55.937Z,44.53
2023-02-23T17:22:01.936Z,46.83
2023-02-23T17:25:07.705Z,40.13
2023-02-23T17:28:13.365Z,41.28
2023-02-23T17:31:25.480Z,41.63
2023-02-23T17:34:35.001Z,41.70
2023-02-23T17:37:40.493Z,41.30
2023-02-23T17:40:46.170Z,37.53
2023-02-23T17:43:51.053Z,40.08
2023-02-23T17:46:59.344Z,46.38
2023-02-23T17:50:06.003Z,36.80
2023-02-23T17:53:11.287Z,36.70
2023-02-23T17:56:18.020Z,56.42
2023-02-23T17:59:25.860Z,55.05
2023-02-23T18:02:33.346Z,45.78
2023-02-23T18:05:42.768Z,44.00
2023-02-23T18:08:50.708Z,36.92
2023-02-23T18:11:56.582Z,51.85
2023-02-23T18:15:02.455Z,51.25
2023-02-23T18:18:11.389Z,51.78
2023-02-23T18:21:17.141Z,47.92
2023-02-23T18:24:22.859Z,51.72
2023-02-23T18:27:30.585Z,50.05
2023-02-23T18:30:37.644Z,46.45
2023-02-23T18:33:45.645Z,49.72
2023-02-23T18:36:52.999Z,53.10
2023-02-23T18:39:59.473Z,55.55
2023-02-23T18:43:04.972Z,44.15
2023-02-23T18:46:10.762Z,49.08
2023-02-23T18:49:19.908Z,53.17
2023-02-23T18:52:27.345Z,52.95
2023-02-23T18:55:33.002Z,52.25
2023-02-23T18:58:38.577Z,59.95
2023-02-23T19:01:45.557Z,50.08
2023-02-23T19:04:53.637Z,57.75
2023-02-23T19:08:02.437Z,51.20
2023-02-23T19:11:07.610Z,47.90
2023-02-23T19:14:16.333Z,53.22
2023-02-23T19:17:23.031Z,52.60
2023-02-23T19:20:38.772Z,50.38
2023-02-23T19:23:51.691Z,49.42
2023-02-23T19:26:59.716Z,60.15
2023-02-23T19:30:04.787Z,56.38
2023-02-23T19:33:12.256Z,54.70
2023-02-23T19:36:24.625Z,50.60
2023-02-23T19:39:30.908Z,49.45
2023-02-23T19:42:37.202Z,63.63
2023-02-23T19:45:46.441Z,51.13
2023-02-23T19:48:53.796Z,36.58
2023-02-23T19:52:02.804Z,46.80
2023-02-23T19:55:08.288Z,52.42
2023-02-23T19:58:16.915Z,51.40
2023-02-23T20:01:24.814Z,53.00
2023-02-23T20:04:32.744Z,51.58
2023-02-23T20:07:40.325Z,51.22
2023-02-23T20:10:45.918Z,50.20
2023-02-23T20:13:51.033Z,51.72
2023-02-23T20:16:56.719Z,48.92
2023-02-23T20:20:01.994Z,49.13
2023-02-23T20:23:10.005Z,55.15
2023-02-23T20:26:16.509Z,53.67
2023-02-23T20:29:24.837Z,46.55
2023-02-23T20:32:32.395Z,54.38
2023-02-23T20:35:38.121Z,54.72
2023-02-23T20:38:45.670Z,52.22
2023-02-23T20:41:53.757Z,57.08
2023-02-23T20:44:58.942Z,62.45
2023-02-23T20:48:04.924Z,53.67
2023-02-23T20:51:13.237Z,68.65
2023-02-23T20:54:22.262Z,56.22
2023-02-23T20:57:27.382Z,61.40
2023-02-23T21:00:34.905Z,62.08
2023-02-23T21:03:40.316Z,53.65
2023-02-23T21:06:47.654Z,48.13
2023-02-23T21:09:56.117Z,63.33
2023-02-23T21:13:01.614Z,63.95
2023-02-23T21:16:06.863Z,50.90
2023-02-23T21:19:16.229Z,52.40
2023-02-23T21:22:21.132Z,61.45
2023-02-23T21:25:30.295Z,49.03
2023-02-23T21:28:35.658Z,57.05
2023-02-23T21:31:42.038Z,51.20
2023-02-23T21:34:47.113Z,53.45
2023-02-23T21:37:55.331Z,64.03
2023-02-23T21:41:02.920Z,45.60
2023-02-23T21:44:09.167Z,52.25
2023-02-23T21:47:15.681Z,62.15
2023-02-23T21:50:22.216Z,56.58
2023-02-23T21:53:27.093Z,63.80
2023-02-23T21:56:36.885Z,58.60
2023-02-23T21:59:42.075Z,72.43
2023-02-23T22:02:49.883Z,64.03
2023-02-23T22:05:55.053Z,54.92
2023-02-23T22:09:00.478Z,75.78
2023-02-23T22:12:08.373Z,47.38
2023-02-23T22:15:15.756Z,85.63
2023-02-23T22:18:24.338Z,65.05
2023-02-23T22:21:33.801Z,43.55
2023-02-23T22:24:40.209Z,75.10
2023-02-23T22:27:47.988Z,71.55
2023-02-23T22:30:53.414Z,77.05
2023-02-23T22:33:59.669Z,64.60
2023-02-23T22:37:04.475Z,102.30
2023-02-23T22:40:13.751Z,78.80
2023-02-23T22:43:22.170Z,58.58
2023-02-23T22:46:28.165Z,82.00
2023-02-23T22:49:33.101Z,83.65
2023-02-23T22:52:38.304Z,84.47
2023-02-23T22:55:49.025Z,88.05
2023-02-23T22:59:06.118Z,85.93
2023-02-23T23:02:12.672Z,55.30
2023-02-23T23:05:21.790Z,80.35
2023-02-23T23:08:29.421Z,83.97
2023-02-23T23:11:36.386Z,80.32
2023-02-23T23:14:44.248Z,73.40
2023-02-23T23:17:53.637Z,77.88
2023-02-23T23:20:59.627Z,75.90
2023-02-23T23:24:06.572Z,69.82
2023-02-23T23:27:11.795Z,67.07
2023-02-23T23:30:21.252Z,56.70
2023-02-23T23:33:27.084Z,57.10
2023-02-23T23:36:33.044Z,67.78
2023-02-23T23:39:37.899Z,58.45
2023-02-23T23:42:46.644Z,51.28
2023-02-23T23:45:54.600Z,44.78
2023-02-23T23:49:02.814Z,74.43
2023-02-23T23:52:08.365Z,69.82
2023-02-23T23:55:14.847Z,90.65
2023-02-23T23:58:19.669Z,108.50
